sensor_id;sensor_type;location;lat;lon;timestamp;P1;durP1;ratioP1;P2;durP2;ratioP2
72586;SDS011;60621;49.576;11.024;2022-11-12T00:00:52;11.57;;;5.40;;
72586;SDS011;60621;49.576;11.024;2022-11-12T00:01:54;7.75;;;4.20;;
72586;SDS011;60621;49.576;11.024;2022-11-12T00:02:55;8.38;;;4.18;;
72586;SDS011;60621;49.576;11.024;2022-11-12T00:03:57;8.00;;;4.35;;
72586;SDS011;60621;49.576;11.024;2022-11-12T00:04:59;9.98;;;4.80;;
72586;SDS011;60621;49.576;11.024;2022-11-12T00:06:01;9.23;;;4.50;;
72586;SDS011;60621;49.576;11.024;2022-11-12T00:07:02;8.30;;;4.53;;
72586;SDS011;60621;49.576;11.024;2022-11-12T00:08:04;7.82;;;4.43;;
72586;SDS011;60621;49.576;11.024;2022-11-12T00:09:06;8.93;;;4.38;;
72586;SDS011;60621;49.576;11.024;2022-11-12T00:10:08;8.13;;;4.60;;
72586;SDS011;60621;49.576;11.024;2022-11-12T00:11:09;9.48;;;4.55;;
72586;SDS011;60621;49.576;11.024;2022-11-12T00:12:11;9.65;;;4.97;;
72586;SDS011;60621;49.576;11.024;2022-11-12T00:13:12;8.95;;;4.10;;
72586;SDS011;60621;49.576;11.024;2022-11-12T00:14:14;8.15;;;4.68;;
72586;SDS011;60621;49.576;11.024;2022-11-12T00:15:16;8.80;;;5.10;;
72586;SDS011;60621;49.576;11.024;2022-11-12T00:16:17;7.70;;;4.22;;
72586;SDS011;60621;49.576;11.024;2022-11-12T00:17:19;8.50;;;4.88;;
72586;SDS011;60621;49.576;11.024;2022-11-12T00:18:21;9.57;;;5.07;;
72586;SDS011;60621;49.576;11.024;2022-11-12T00:19:22;10.10;;;5.50;;
72586;SDS011;60621;49.576;11.024;2022-11-12T00:20:24;10.75;;;5.00;;
72586;SDS011;60621;49.576;11.024;2022-11-12T00:21:26;9.35;;;4.95;;
72586;SDS011;60621;49.576;11.024;2022-11-12T00:22:27;8.48;;;4.93;;
72586;SDS011;60621;49.576;11.024;2022-11-12T00:23:29;8.80;;;4.82;;
72586;SDS011;60621;49.576;11.024;2022-11-12T00:24:30;9.40;;;5.07;;
72586;SDS011;60621;49.576;11.024;2022-11-12T00:25:32;9.75;;;5.00;;
72586;SDS011;60621;49.576;11.024;2022-11-12T00:26:35;9.38;;;5.03;;
72586;SDS011;60621;49.576;11.024;2022-11-12T00:27:36;8.75;;;4.43;;
72586;SDS011;60621;49.576;11.024;2022-11-12T00:28:38;9.13;;;5.28;;
72586;SDS011;60621;49.576;11.024;2022-11-12T00:29:39;9.32;;;5.40;;
72586;SDS011;60621;49.576;11.024;2022-11-12T00:30:41;9.52;;;5.15;;
72586;SDS011;60621;49.576;11.024;2022-11-12T00:31:43;8.88;;;4.97;;
72586;SDS011;60621;49.576;11.024;2022-11-12T00:32:44;8.35;;;4.70;;
72586;SDS011;60621;49.576;11.024;2022-11-12T00:33:46;10.60;;;4.93;;
72586;SDS011;60621;49.576;11.024;2022-11-12T00:34:48;9.05;;;5.07;;
72586;SDS011;60621;49.576;11.024;2022-11-12T00:35:49;8.73;;;5.10;;
72586;SDS011;60621;49.576;11.024;2022-11-12T00:36:51;9.15;;;5.00;;
72586;SDS011;60621;49.576;11.024;2022-11-12T00:37:53;8.52;;;5.07;;
72586;SDS011;60621;49.576;11.024;2022-11-12T00:38:57;8.15;;;5.00;;
72586;SDS011;60621;49.576;11.024;2022-11-12T00:39:58;8.88;;;4.75;;
72586;SDS011;60621;49.576;11.024;2022-11-12T00:41:00;9.57;;;5.50;;
72586;SDS011;60621;49.576;11.024;2022-11-12T00:42:01;10.60;;;5.47;;
72586;SDS011;60621;49.576;11.024;2022-11-12T00:43:03;7.70;;;4.53;;
72586;SDS011;60621;49.576;11.024;2022-11-12T00:44:05;9.10;;;5.00;;
72586;SDS011;60621;49.576;11.024;2022-11-12T00:45:09;9.55;;;4.88;;
72586;SDS011;60621;49.576;11.024;2022-11-12T00:46:11;8.95;;;5.05;;
72586;SDS011;60621;49.576;11.024;2022-11-12T00:47:13;9.00;;;5.13;;
72586;SDS011;60621;49.576;11.024;2022-11-12T00:48:14;9.18;;;4.82;;
72586;SDS011;60621;49.576;11.024;2022-11-12T00:49:16;9.43;;;5.30;;
72586;SDS011;60621;49.576;11.024;2022-11-12T00:50:18;8.93;;;4.70;;
72586;SDS011;60621;49.576;11.024;2022-11-12T00:51:19;9.82;;;5.15;;
72586;SDS011;60621;49.576;11.024;2022-11-12T00:52:21;9.07;;;4.95;;
72586;SDS011;60621;49.576;11.024;2022-11-12T00:53:22;10.18;;;5.13;;
72586;SDS011;60621;49.576;11.024;2022-11-12T00:54:24;9.77;;;5.30;;
72586;SDS011;60621;49.576;11.024;2022-11-12T00:55:26;9.70;;;5.00;;
72586;SDS011;60621;49.576;11.024;2022-11-12T00:56:27;9.93;;;5.47;;
72586;SDS011;60621;49.576;11.024;2022-11-12T00:57:35;10.57;;;4.93;;
72586;SDS011;60621;49.576;11.024;2022-11-12T00:58:37;9.88;;;5.38;;
72586;SDS011;60621;49.576;11.024;2022-11-12T00:59:38;8.60;;;4.82;;
72586;SDS011;60621;49.576;11.024;2022-11-12T01:00:40;8.32;;;4.90;;
72586;SDS011;60621;49.576;11.024;2022-11-12T01:01:42;9.13;;;5.22;;
72586;SDS011;60621;49.576;11.024;2022-11-12T01:02:43;9.32;;;4.97;;
72586;SDS011;60621;49.576;11.024;2022-11-12T01:03:51;10.13;;;5.80;;
72586;SDS011;60621;49.576;11.024;2022-11-12T01:04:53;33.38;;;16.58;;
72586;SDS011;60621;49.576;11.024;2022-11-12T01:06:00;29.73;;;16.25;;
72586;SDS011;60621;49.576;11.024;2022-11-12T01:07:02;26.35;;;14.70;;
72586;SDS011;60621;49.576;11.024;2022-11-12T01:08:04;26.52;;;14.30;;
72586;SDS011;60621;49.576;11.024;2022-11-12T01:09:06;17.85;;;10.05;;
72586;SDS011;60621;49.576;11.024;2022-11-12T01:10:08;14.43;;;6.95;;
72586;SDS011;60621;49.576;11.024;2022-11-12T01:11:12;10.95;;;5.90;;
72586;SDS011;60621;49.576;11.024;2022-11-12T01:12:19;9.88;;;5.50;;
72586;SDS011;60621;49.576;11.024;2022-11-12T01:13:20;9.15;;;4.85;;
72586;SDS011;60621;49.576;11.024;2022-11-12T01:14:22;9.63;;;4.60;;
72586;SDS011;60621;49.576;11.024;2022-11-12T01:15:23;9.85;;;4.65;;
72586;SDS011;60621;49.576;11.024;2022-11-12T01:16:26;8.52;;;4.97;;
72586;SDS011;60621;49.576;11.024;2022-11-12T01:17:31;10.10;;;5.57;;
72586;SDS011;60621;49.576;11.024;2022-11-12T01:18:33;8.98;;;4.80;;
72586;SDS011;60621;49.576;11.024;2022-11-12T01:19:35;10.98;;;5.35;;
72586;SDS011;60621;49.576;11.024;2022-11-12T01:20:37;8.82;;;4.70;;
72586;SDS011;60621;49.576;11.024;2022-11-12T01:21:40;9.43;;;5.15;;
72586;SDS011;60621;49.576;11.024;2022-11-12T01:22:43;9.43;;;4.78;;
72586;SDS011;60621;49.576;11.024;2022-11-12T01:23:44;8.68;;;4.93;;
72586;SDS011;60621;49.576;11.024;2022-11-12T01:24:46;8.95;;;5.40;;
72586;SDS011;60621;49.576;11.024;2022-11-12T01:25:48;9.13;;;4.72;;
72586;SDS011;60621;49.576;11.024;2022-11-12T01:26:49;9.23;;;4.95;;
72586;SDS011;60621;49.576;11.024;2022-11-12T01:27:51;8.23;;;4.88;;
72586;SDS011;60621;49.576;11.024;2022-11-12T01:28:53;8.38;;;5.10;;
72586;SDS011;60621;49.576;11.024;2022-11-12T01:29:55;10.95;;;5.45;;
72586;SDS011;60621;49.576;11.024;2022-11-12T01:30:57;9.23;;;4.97;;
72586;SDS011;60621;49.576;11.024;2022-11-12T01:31:59;10.60;;;5.50;;
72586;SDS011;60621;49.576;11.024;2022-11-12T01:33:01;9.82;;;5.30;;
72586;SDS011;60621;49.576;11.024;2022-11-12T01:34:03;11.05;;;5.32;;
72586;SDS011;60621;49.576;11.024;2022-11-12T01:35:08;9.23;;;5.07;;
72586;SDS011;60621;49.576;11.024;2022-11-12T01:36:10;9.00;;;4.88;;
72586;SDS011;60621;49.576;11.024;2022-11-12T01:37:13;8.93;;;4.85;;
72586;SDS011;60621;49.576;11.024;2022-11-12T01:38:15;8.48;;;4.95;;
72586;SDS011;60621;49.576;11.024;2022-11-12T01:39:16;9.02;;;5.20;;
72586;SDS011;60621;49.576;11.024;2022-11-12T01:40:18;9.55;;;5.15;;
72586;SDS011;60621;49.576;11.024;2022-11-12T01:41:22;8.07;;;4.68;;
72586;SDS011;60621;49.576;11.024;2022-11-12T01:42:27;8.20;;;4.70;;
72586;SDS011;60621;49.576;11.024;2022-11-12T01:43:30;9.18;;;4.70;;
72586;SDS011;60621;49.576;11.024;2022-11-12T01:44:32;10.02;;;5.18;;
72586;SDS011;60621;49.576;11.024;2022-11-12T01:45:35;8.70;;;4.45;;
72586;SDS011;60621;49.576;11.024;2022-11-12T01:47:22;8.55;;;4.88;;
72586;SDS011;60621;49.576;11.024;2022-11-12T01:48:26;9.50;;;5.15;;
72586;SDS011;60621;49.576;11.024;2022-11-12T01:49:35;8.60;;;4.53;;
72586;SDS011;60621;49.576;11.024;2022-11-12T01:50:50;9.10;;;4.80;;
72586;SDS011;60621;49.576;11.024;2022-11-12T01:51:54;10.10;;;4.93;;
72586;SDS011;60621;49.576;11.024;2022-11-12T01:53:01;10.13;;;4.82;;
72586;SDS011;60621;49.576;11.024;2022-11-12T01:54:07;8.65;;;4.97;;
72586;SDS011;60621;49.576;11.024;2022-11-12T01:55:25;10.07;;;5.28;;
72586;SDS011;60621;49.576;11.024;2022-11-12T01:56:29;8.98;;;5.25;;
72586;SDS011;60621;49.576;11.024;2022-11-12T01:57:34;8.85;;;5.40;;
72586;SDS011;60621;49.576;11.024;2022-11-12T01:58:40;8.48;;;4.93;;
72586;SDS011;60621;49.576;11.024;2022-11-12T01:59:44;8.23;;;4.38;;
72586;SDS011;60621;49.576;11.024;2022-11-12T02:00:49;8.85;;;4.82;;
72586;SDS011;60621;49.576;11.024;2022-11-12T02:01:51;9.00;;;4.63;;
72586;SDS011;60621;49.576;11.024;2022-11-12T02:02:53;9.07;;;4.60;;
72586;SDS011;60621;49.576;11.024;2022-11-12T02:03:58;9.23;;;4.78;;
72586;SDS011;60621;49.576;11.024;2022-11-12T02:04:59;9.40;;;4.90;;
72586;SDS011;60621;49.576;11.024;2022-11-12T02:06:04;9.25;;;5.15;;
72586;SDS011;60621;49.576;11.024;2022-11-12T02:07:09;9.20;;;4.93;;
72586;SDS011;60621;49.576;11.024;2022-11-12T02:08:11;9.18;;;4.95;;
72586;SDS011;60621;49.576;11.024;2022-11-12T02:09:13;9.13;;;4.78;;
72586;SDS011;60621;49.576;11.024;2022-11-12T02:10:16;9.02;;;5.05;;
72586;SDS011;60621;49.576;11.024;2022-11-12T02:11:18;10.25;;;5.18;;
72586;SDS011;60621;49.576;11.024;2022-11-12T02:12:21;8.55;;;4.90;;
72586;SDS011;60621;49.576;11.024;2022-11-12T02:13:41;9.65;;;4.60;;
72586;SDS011;60621;49.576;11.024;2022-11-12T02:15:03;10.52;;;5.10;;
72586;SDS011;60621;49.576;11.024;2022-11-12T02:16:06;11.32;;;5.22;;
72586;SDS011;60621;49.576;11.024;2022-11-12T02:17:10;10.13;;;5.43;;
72586;SDS011;60621;49.576;11.024;2022-11-12T02:18:11;8.80;;;5.00;;
72586;SDS011;60621;49.576;11.024;2022-11-12T02:19:14;9.43;;;5.50;;
72586;SDS011;60621;49.576;11.024;2022-11-12T02:20:16;10.73;;;5.55;;
72586;SDS011;60621;49.576;11.024;2022-11-12T02:21:22;10.20;;;5.82;;
72586;SDS011;60621;49.576;11.024;2022-11-12T02:22:25;9.98;;;5.45;;
72586;SDS011;60621;49.576;11.024;2022-11-12T02:23:26;9.45;;;5.28;;
72586;SDS011;60621;49.576;11.024;2022-11-12T02:24:30;9.60;;;5.45;;
72586;SDS011;60621;49.576;11.024;2022-11-12T02:25:33;10.60;;;5.15;;
72586;SDS011;60621;49.576;11.024;2022-11-12T02:27:41;9.02;;;4.53;;
72586;SDS011;60621;49.576;11.024;2022-11-12T02:28:43;9.73;;;5.05;;
72586;SDS011;60621;49.576;11.024;2022-11-12T02:29:45;8.35;;;5.57;;
72586;SDS011;60621;49.576;11.024;2022-11-12T02:30:47;10.00;;;5.32;;
72586;SDS011;60621;49.576;11.024;2022-11-12T02:31:50;11.00;;;5.50;;
72586;SDS011;60621;49.576;11.024;2022-11-12T02:32:52;12.63;;;6.60;;
72586;SDS011;60621;49.576;11.024;2022-11-12T02:33:53;12.30;;;6.85;;
72586;SDS011;60621;49.576;11.024;2022-11-12T02:34:55;10.98;;;5.88;;
72586;SDS011;60621;49.576;11.024;2022-11-12T02:35:56;11.38;;;5.95;;
72586;SDS011;60621;49.576;11.024;2022-11-12T02:36:58;9.40;;;5.30;;
72586;SDS011;60621;49.576;11.024;2022-11-12T02:38:00;10.07;;;4.80;;
72586;SDS011;60621;49.576;11.024;2022-11-12T02:39:01;9.20;;;4.82;;
72586;SDS011;60621;49.576;11.024;2022-11-12T02:40:04;9.70;;;4.88;;
72586;SDS011;60621;49.576;11.024;2022-11-12T02:41:06;8.75;;;4.78;;
72586;SDS011;60621;49.576;11.024;2022-11-12T02:42:07;9.40;;;4.88;;
72586;SDS011;60621;49.576;11.024;2022-11-12T02:43:09;10.05;;;5.22;;
72586;SDS011;60621;49.576;11.024;2022-11-12T02:44:11;9.45;;;5.03;;
72586;SDS011;60621;49.576;11.024;2022-11-12T02:45:13;8.52;;;4.93;;
72586;SDS011;60621;49.576;11.024;2022-11-12T02:46:15;8.38;;;4.38;;
72586;SDS011;60621;49.576;11.024;2022-11-12T02:47:17;7.82;;;4.43;;
72586;SDS011;60621;49.576;11.024;2022-11-12T02:48:19;9.38;;;4.93;;
72586;SDS011;60621;49.576;11.024;2022-11-12T02:49:21;10.05;;;4.72;;
72586;SDS011;60621;49.576;11.024;2022-11-12T02:50:22;8.32;;;4.53;;
72586;SDS011;60621;49.576;11.024;2022-11-12T02:51:24;8.05;;;4.50;;
72586;SDS011;60621;49.576;11.024;2022-11-12T02:52:25;8.70;;;4.85;;
72586;SDS011;60621;49.576;11.024;2022-11-12T02:53:27;8.40;;;4.38;;
72586;SDS011;60621;49.576;11.024;2022-11-12T02:54:29;8.13;;;4.65;;
72586;SDS011;60621;49.576;11.024;2022-11-12T02:55:30;8.13;;;4.78;;
72586;SDS011;60621;49.576;11.024;2022-11-12T02:56:32;10.25;;;4.97;;
72586;SDS011;60621;49.576;11.024;2022-11-12T02:57:36;9.43;;;5.30;;
72586;SDS011;60621;49.576;11.024;2022-11-12T02:59:39;8.88;;;5.18;;
72586;SDS011;60621;49.576;11.024;2022-11-12T03:00:41;7.95;;;4.72;;
72586;SDS011;60621;49.576;11.024;2022-11-12T03:01:42;8.40;;;4.50;;
72586;SDS011;60621;49.576;11.024;2022-11-12T03:02:44;8.07;;;4.45;;
72586;SDS011;60621;49.576;11.024;2022-11-12T03:03:59;8.77;;;4.55;;
72586;SDS011;60621;49.576;11.024;2022-11-12T03:05:00;8.13;;;4.90;;
72586;SDS011;60621;49.576;11.024;2022-11-12T03:06:02;8.07;;;4.78;;
72586;SDS011;60621;49.576;11.024;2022-11-12T03:07:04;8.68;;;4.78;;
72586;SDS011;60621;49.576;11.024;2022-11-12T03:08:06;9.55;;;5.07;;
72586;SDS011;60621;49.576;11.024;2022-11-12T03:09:10;8.25;;;4.25;;
72586;SDS011;60621;49.576;11.024;2022-11-12T03:10:12;8.68;;;5.10;;
72586;SDS011;60621;49.576;11.024;2022-11-12T03:11:14;9.13;;;5.00;;
72586;SDS011;60621;49.576;11.024;2022-11-12T03:12:16;7.57;;;4.47;;
72586;SDS011;60621;49.576;11.024;2022-11-12T03:13:18;8.30;;;4.88;;
72586;SDS011;60621;49.576;11.024;2022-11-12T03:14:21;8.55;;;4.68;;
72586;SDS011;60621;49.576;11.024;2022-11-12T03:15:24;7.53;;;4.10;;
72586;SDS011;60621;49.576;11.024;2022-11-12T03:16:25;8.82;;;4.63;;
72586;SDS011;60621;49.576;11.024;2022-11-12T03:17:27;7.85;;;4.78;;
72586;SDS011;60621;49.576;11.024;2022-11-12T03:18:28;8.30;;;4.90;;
72586;SDS011;60621;49.576;11.024;2022-11-12T03:19:30;7.85;;;4.57;;
72586;SDS011;60621;49.576;11.024;2022-11-12T03:20:32;8.93;;;4.97;;
72586;SDS011;60621;49.576;11.024;2022-11-12T03:21:34;7.88;;;4.50;;
72586;SDS011;60621;49.576;11.024;2022-11-12T03:22:36;7.47;;;4.70;;
72586;SDS011;60621;49.576;11.024;2022-11-12T03:23:39;7.85;;;4.38;;
72586;SDS011;60621;49.576;11.024;2022-11-12T03:24:41;8.95;;;4.78;;
72586;SDS011;60621;49.576;11.024;2022-11-12T03:25:42;8.25;;;4.65;;
72586;SDS011;60621;49.576;11.024;2022-11-12T03:26:44;8.75;;;4.90;;
72586;SDS011;60621;49.576;11.024;2022-11-12T03:27:45;7.85;;;4.65;;
72586;SDS011;60621;49.576;11.024;2022-11-12T03:28:47;8.88;;;5.28;;
72586;SDS011;60621;49.576;11.024;2022-11-12T03:29:51;8.35;;;4.53;;
72586;SDS011;60621;49.576;11.024;2022-11-12T03:30:55;10.05;;;5.10;;
72586;SDS011;60621;49.576;11.024;2022-11-12T03:31:57;8.50;;;4.55;;
72586;SDS011;60621;49.576;11.024;2022-11-12T03:32:59;9.50;;;4.32;;
72586;SDS011;60621;49.576;11.024;2022-11-12T03:34:01;10.65;;;5.18;;
72586;SDS011;60621;49.576;11.024;2022-11-12T03:35:03;8.10;;;5.00;;
72586;SDS011;60621;49.576;11.024;2022-11-12T03:36:05;8.55;;;4.82;;
72586;SDS011;60621;49.576;11.024;2022-11-12T03:37:07;8.90;;;4.70;;
72586;SDS011;60621;49.576;11.024;2022-11-12T03:38:09;10.73;;;4.72;;
72586;SDS011;60621;49.576;11.024;2022-11-12T03:39:11;7.95;;;4.45;;
72586;SDS011;60621;49.576;11.024;2022-11-12T03:40:13;7.50;;;4.30;;
72586;SDS011;60621;49.576;11.024;2022-11-12T03:41:16;7.82;;;4.70;;
72586;SDS011;60621;49.576;11.024;2022-11-12T03:42:17;9.43;;;5.40;;
72586;SDS011;60621;49.576;11.024;2022-11-12T03:43:19;10.05;;;4.85;;
72586;SDS011;60621;49.576;11.024;2022-11-12T03:44:20;9.40;;;4.78;;
72586;SDS011;60621;49.576;11.024;2022-11-12T03:45:22;8.57;;;4.75;;
72586;SDS011;60621;49.576;11.024;2022-11-12T03:46:27;8.73;;;4.70;;
72586;SDS011;60621;49.576;11.024;2022-11-12T03:47:28;7.97;;;4.50;;
72586;SDS011;60621;49.576;11.024;2022-11-12T03:48:29;8.40;;;4.57;;
72586;SDS011;60621;49.576;11.024;2022-11-12T03:49:31;9.48;;;4.80;;
72586;SDS011;60621;49.576;11.024;2022-11-12T03:50:32;9.30;;;4.75;;
72586;SDS011;60621;49.576;11.024;2022-11-12T03:51:34;8.82;;;5.32;;
72586;SDS011;60621;49.576;11.024;2022-11-12T03:52:36;9.45;;;4.85;;
72586;SDS011;60621;49.576;11.024;2022-11-12T03:53:38;8.63;;;4.63;;
72586;SDS011;60621;49.576;11.024;2022-11-12T03:54:40;8.75;;;4.88;;
72586;SDS011;60621;49.576;11.024;2022-11-12T03:55:41;8.80;;;5.03;;
72586;SDS011;60621;49.576;11.024;2022-11-12T03:56:43;8.88;;;5.05;;
72586;SDS011;60621;49.576;11.024;2022-11-12T03:57:46;8.05;;;4.18;;
72586;SDS011;60621;49.576;11.024;2022-11-12T03:58:48;7.63;;;4.30;;
72586;SDS011;60621;49.576;11.024;2022-11-12T03:59:50;7.13;;;4.30;;
72586;SDS011;60621;49.576;11.024;2022-11-12T04:00:51;8.20;;;4.07;;
72586;SDS011;60621;49.576;11.024;2022-11-12T04:01:53;7.35;;;4.50;;
72586;SDS011;60621;49.576;11.024;2022-11-12T04:02:55;8.35;;;4.70;;
72586;SDS011;60621;49.576;11.024;2022-11-12T04:03:58;8.73;;;4.28;;
72586;SDS011;60621;49.576;11.024;2022-11-12T04:04:59;7.55;;;4.40;;
72586;SDS011;60621;49.576;11.024;2022-11-12T04:06:19;8.45;;;4.20;;
72586;SDS011;60621;49.576;11.024;2022-11-12T04:07:39;7.70;;;3.83;;
72586;SDS011;60621;49.576;11.024;2022-11-12T04:08:59;7.85;;;4.22;;
72586;SDS011;60621;49.576;11.024;2022-11-12T04:10:01;6.82;;;4.20;;
72586;SDS011;60621;49.576;11.024;2022-11-12T04:11:09;9.90;;;4.55;;
72586;SDS011;60621;49.576;11.024;2022-11-12T04:12:15;7.72;;;3.95;;
72586;SDS011;60621;49.576;11.024;2022-11-12T04:13:36;8.50;;;4.50;;
72586;SDS011;60621;49.576;11.024;2022-11-12T04:14:38;6.90;;;3.85;;
72586;SDS011;60621;49.576;11.024;2022-11-12T04:15:40;8.15;;;4.10;;
72586;SDS011;60621;49.576;11.024;2022-11-12T04:16:42;7.55;;;4.25;;
72586;SDS011;60621;49.576;11.024;2022-11-12T04:18:02;7.35;;;3.78;;
72586;SDS011;60621;49.576;11.024;2022-11-12T04:19:22;7.82;;;4.85;;
72586;SDS011;60621;49.576;11.024;2022-11-12T04:20:42;7.43;;;4.10;;
72586;SDS011;60621;49.576;11.024;2022-11-12T04:22:06;6.78;;;3.75;;
72586;SDS011;60621;49.576;11.024;2022-11-12T04:23:09;7.22;;;3.70;;
72586;SDS011;60621;49.576;11.024;2022-11-12T04:24:11;7.07;;;4.03;;
72586;SDS011;60621;49.576;11.024;2022-11-12T04:25:33;9.18;;;4.68;;
72586;SDS011;60621;49.576;11.024;2022-11-12T04:26:53;8.13;;;4.20;;
72586;SDS011;60621;49.576;11.024;2022-11-12T04:27:55;7.50;;;4.00;;
72586;SDS011;60621;49.576;11.024;2022-11-12T04:28:56;7.75;;;4.13;;
72586;SDS011;60621;49.576;11.024;2022-11-12T04:30:16;7.47;;;4.20;;
72586;SDS011;60621;49.576;11.024;2022-11-12T04:31:19;6.80;;;3.60;;
72586;SDS011;60621;49.576;11.024;2022-11-12T04:32:21;8.13;;;4.25;;
72586;SDS011;60621;49.576;11.024;2022-11-12T04:33:23;7.55;;;4.22;;
72586;SDS011;60621;49.576;11.024;2022-11-12T04:34:25;8.15;;;4.72;;
72586;SDS011;60621;49.576;11.024;2022-11-12T04:35:29;7.57;;;4.10;;
72586;SDS011;60621;49.576;11.024;2022-11-12T04:36:30;8.98;;;4.20;;
72586;SDS011;60621;49.576;11.024;2022-11-12T04:37:33;7.68;;;4.25;;
72586;SDS011;60621;49.576;11.024;2022-11-12T04:38:45;8.13;;;3.90;;
72586;SDS011;60621;49.576;11.024;2022-11-12T04:39:46;7.60;;;4.28;;
72586;SDS011;60621;49.576;11.024;2022-11-12T04:40:48;7.45;;;4.28;;
72586;SDS011;60621;49.576;11.024;2022-11-12T04:42:08;8.43;;;4.35;;
72586;SDS011;60621;49.576;11.024;2022-11-12T04:43:29;9.38;;;4.47;;
72586;SDS011;60621;49.576;11.024;2022-11-12T04:44:49;7.60;;;4.40;;
72586;SDS011;60621;49.576;11.024;2022-11-12T04:46:04;8.93;;;4.70;;
72586;SDS011;60621;49.576;11.024;2022-11-12T04:47:06;6.60;;;4.13;;
72586;SDS011;60621;49.576;11.024;2022-11-12T04:48:07;8.65;;;4.03;;
72586;SDS011;60621;49.576;11.024;2022-11-12T04:49:09;7.63;;;4.65;;
72586;SDS011;60621;49.576;11.024;2022-11-12T04:50:15;7.80;;;3.97;;
72586;SDS011;60621;49.576;11.024;2022-11-12T04:51:18;8.38;;;4.20;;
72586;SDS011;60621;49.576;11.024;2022-11-12T04:52:38;7.72;;;4.28;;
72586;SDS011;60621;49.576;11.024;2022-11-12T04:53:39;8.20;;;4.10;;
72586;SDS011;60621;49.576;11.024;2022-11-12T04:54:41;8.82;;;4.57;;
72586;SDS011;60621;49.576;11.024;2022-11-12T04:55:42;9.25;;;4.53;;
72586;SDS011;60621;49.576;11.024;2022-11-12T04:56:44;7.05;;;4.18;;
72586;SDS011;60621;49.576;11.024;2022-11-12T04:57:46;8.13;;;4.57;;
72586;SDS011;60621;49.576;11.024;2022-11-12T04:58:47;9.25;;;4.15;;
72586;SDS011;60621;49.576;11.024;2022-11-12T04:59:48;6.97;;;3.72;;
72586;SDS011;60621;49.576;11.024;2022-11-12T05:00:50;7.50;;;4.10;;
72586;SDS011;60621;49.576;11.024;2022-11-12T05:01:52;8.45;;;4.15;;
72586;SDS011;60621;49.576;11.024;2022-11-12T05:02:53;7.63;;;4.28;;
72586;SDS011;60621;49.576;11.024;2022-11-12T05:03:55;8.40;;;4.50;;
72586;SDS011;60621;49.576;11.024;2022-11-12T05:04:56;8.35;;;4.28;;
72586;SDS011;60621;49.576;11.024;2022-11-12T05:06:01;8.02;;;4.20;;
72586;SDS011;60621;49.576;11.024;2022-11-12T05:07:04;10.45;;;4.28;;
72586;SDS011;60621;49.576;11.024;2022-11-12T05:08:06;6.55;;;4.03;;
72586;SDS011;60621;49.576;11.024;2022-11-12T05:09:08;8.02;;;4.60;;
72586;SDS011;60621;49.576;11.024;2022-11-12T05:10:09;9.07;;;4.10;;
72586;SDS011;60621;49.576;11.024;2022-11-12T05:11:11;7.35;;;3.85;;
72586;SDS011;60621;49.576;11.024;2022-11-12T05:12:13;7.60;;;4.53;;
72586;SDS011;60621;49.576;11.024;2022-11-12T05:13:15;8.75;;;4.60;;
72586;SDS011;60621;49.576;11.024;2022-11-12T05:14:17;9.63;;;5.32;;
72586;SDS011;60621;49.576;11.024;2022-11-12T05:15:19;10.68;;;5.75;;
72586;SDS011;60621;49.576;11.024;2022-11-12T05:16:20;9.52;;;5.30;;
72586;SDS011;60621;49.576;11.024;2022-11-12T05:17:22;8.73;;;5.18;;
72586;SDS011;60621;49.576;11.024;2022-11-12T05:18:24;9.27;;;5.20;;
72586;SDS011;60621;49.576;11.024;2022-11-12T05:19:26;8.93;;;4.68;;
72586;SDS011;60621;49.576;11.024;2022-11-12T05:20:27;8.02;;;4.45;;
72586;SDS011;60621;49.576;11.024;2022-11-12T05:21:29;8.25;;;3.97;;
72586;SDS011;60621;49.576;11.024;2022-11-12T05:22:48;7.43;;;3.80;;
72586;SDS011;60621;49.576;11.024;2022-11-12T05:24:06;7.65;;;4.20;;
72586;SDS011;60621;49.576;11.024;2022-11-12T05:25:08;7.97;;;3.78;;
72586;SDS011;60621;49.576;11.024;2022-11-12T05:26:10;6.75;;;4.13;;
72586;SDS011;60621;49.576;11.024;2022-11-12T05:27:12;7.18;;;3.97;;
72586;SDS011;60621;49.576;11.024;2022-11-12T05:28:15;9.00;;;4.00;;
72586;SDS011;60621;49.576;11.024;2022-11-12T05:29:17;8.15;;;4.47;;
72586;SDS011;60621;49.576;11.024;2022-11-12T05:30:19;8.10;;;4.43;;
72586;SDS011;60621;49.576;11.024;2022-11-12T05:31:21;8.10;;;4.22;;
72586;SDS011;60621;49.576;11.024;2022-11-12T05:32:22;6.68;;;4.13;;
72586;SDS011;60621;49.576;11.024;2022-11-12T05:33:24;8.52;;;4.15;;
72586;SDS011;60621;49.576;11.024;2022-11-12T05:34:26;7.47;;;4.18;;
72586;SDS011;60621;49.576;11.024;2022-11-12T05:35:28;7.80;;;4.22;;
72586;SDS011;60621;49.576;11.024;2022-11-12T05:36:29;7.13;;;4.22;;
72586;SDS011;60621;49.576;11.024;2022-11-12T05:37:31;7.75;;;4.30;;
72586;SDS011;60621;49.576;11.024;2022-11-12T05:38:32;7.75;;;3.67;;
72586;SDS011;60621;49.576;11.024;2022-11-12T05:39:34;7.72;;;4.00;;
72586;SDS011;60621;49.576;11.024;2022-11-12T05:40:36;7.00;;;3.53;;
72586;SDS011;60621;49.576;11.024;2022-11-12T05:41:37;6.75;;;3.47;;
72586;SDS011;60621;49.576;11.024;2022-11-12T05:42:59;8.50;;;4.10;;
72586;SDS011;60621;49.576;11.024;2022-11-12T05:44:00;8.20;;;3.75;;
72586;SDS011;60621;49.576;11.024;2022-11-12T05:45:02;8.73;;;3.78;;
72586;SDS011;60621;49.576;11.024;2022-11-12T05:46:04;6.75;;;4.25;;
72586;SDS011;60621;49.576;11.024;2022-11-12T05:47:05;8.10;;;4.03;;
72586;SDS011;60621;49.576;11.024;2022-11-12T05:48:07;7.07;;;3.67;;
72586;SDS011;60621;49.576;11.024;2022-11-12T05:49:09;6.85;;;3.80;;
72586;SDS011;60621;49.576;11.024;2022-11-12T05:50:11;7.22;;;3.95;;
72586;SDS011;60621;49.576;11.024;2022-11-12T05:51:13;8.35;;;3.80;;
72586;SDS011;60621;49.576;11.024;2022-11-12T05:52:14;7.07;;;3.97;;
72586;SDS011;60621;49.576;11.024;2022-11-12T05:53:16;8.13;;;4.65;;
72586;SDS011;60621;49.576;11.024;2022-11-12T05:54:18;10.68;;;5.20;;
72586;SDS011;60621;49.576;11.024;2022-11-12T05:55:19;12.90;;;5.10;;
72586;SDS011;60621;49.576;11.024;2022-11-12T05:56:21;10.15;;;5.32;;
72586;SDS011;60621;49.576;11.024;2022-11-12T05:57:22;8.73;;;4.43;;
72586;SDS011;60621;49.576;11.024;2022-11-12T05:58:26;10.25;;;5.03;;
72586;SDS011;60621;49.576;11.024;2022-11-12T05:59:28;9.02;;;4.35;;
72586;SDS011;60621;49.576;11.024;2022-11-12T06:00:30;8.15;;;4.55;;
72586;SDS011;60621;49.576;11.024;2022-11-12T06:01:32;7.53;;;4.25;;
72586;SDS011;60621;49.576;11.024;2022-11-12T06:02:34;6.90;;;3.97;;
72586;SDS011;60621;49.576;11.024;2022-11-12T06:03:35;7.30;;;3.65;;
72586;SDS011;60621;49.576;11.024;2022-11-12T06:04:37;7.65;;;4.10;;
72586;SDS011;60621;49.576;11.024;2022-11-12T06:05:38;6.78;;;3.67;;
72586;SDS011;60621;49.576;11.024;2022-11-12T06:06:40;8.40;;;3.75;;
72586;SDS011;60621;49.576;11.024;2022-11-12T06:07:42;8.52;;;4.00;;
72586;SDS011;60621;49.576;11.024;2022-11-12T06:08:44;7.10;;;3.63;;
72586;SDS011;60621;49.576;11.024;2022-11-12T06:09:46;7.70;;;3.90;;
72586;SDS011;60621;49.576;11.024;2022-11-12T06:10:48;6.97;;;4.20;;
72586;SDS011;60621;49.576;11.024;2022-11-12T06:11:50;7.65;;;3.50;;
72586;SDS011;60621;49.576;11.024;2022-11-12T06:12:51;7.72;;;4.05;;
72586;SDS011;60621;49.576;11.024;2022-11-12T06:13:53;7.05;;;3.60;;
72586;SDS011;60621;49.576;11.024;2022-11-12T06:14:55;7.40;;;4.07;;
72586;SDS011;60621;49.576;11.024;2022-11-12T06:15:56;7.50;;;3.80;;
72586;SDS011;60621;49.576;11.024;2022-11-12T06:16:59;7.05;;;3.95;;
72586;SDS011;60621;49.576;11.024;2022-11-12T06:18:00;8.68;;;4.53;;
72586;SDS011;60621;49.576;11.024;2022-11-12T06:19:01;8.23;;;4.22;;